createdAt,value
2023-04-30T00:01:53.731Z,64.11
2023-04-30T00:04:21.737Z,63.53
2023-04-30T00:06:49.677Z,66.45
2023-04-30T00:09:17.583Z,67.67
2023-04-30T00:11:46.810Z,69.00
2023-04-30T00:14:14.672Z,69.64
2023-04-30T00:16:42.647Z,70.60
2023-04-30T00:19:10.680Z,69.52
2023-04-30T00:21:38.765Z,68.39
2023-04-30T00:24:07.053Z,66.37
2023-04-30T00:26:34.904Z,64.58
2023-04-30T00:29:04.594Z,65.42
2023-04-30T00:31:32.634Z,65.51
2023-04-30T00:34:00.494Z,64.83
2023-04-30T00:36:28.378Z,65.34
2023-04-30T00:38:56.545Z,67.07
2023-04-30T00:41:25.542Z,69.00
2023-04-30T00:43:53.398Z,68.08
2023-04-30T00:46:22.953Z,66.35
2023-04-30T00:48:51.334Z,68.17
2023-04-30T00:51:19.423Z,66.00
2023-04-30T00:53:47.732Z,66.85
2023-04-30T00:56:17.225Z,66.34
2023-04-30T00:58:45.327Z,67.63
2023-04-30T01:01:13.541Z,68.46
2023-04-30T01:03:44.644Z,67.31
2023-04-30T01:06:12.681Z,66.39
2023-04-30T01:08:40.702Z,67.05
2023-04-30T01:11:27.460Z,66.80
2023-04-30T01:14:03.860Z,67.95
2023-04-30T01:16:37.023Z,69.52
2023-04-30T01:19:21.575Z,70.13
2023-04-30T01:21:50.253Z,68.64
2023-04-30T01:24:39.227Z,67.77
2023-04-30T01:27:24.883Z,69.04
2023-04-30T01:29:56.292Z,68.39
2023-04-30T01:32:25.389Z,68.15
2023-04-30T01:34:53.312Z,69.10
2023-04-30T01:37:28.642Z,68.68
2023-04-30T01:40:16.674Z,68.14
2023-04-30T01:42:54.093Z,70.32
2023-04-30T01:45:36.952Z,70.71
2023-04-30T01:48:13.960Z,71.17
2023-04-30T01:50:49.520Z,72.24
2023-04-30T01:53:21.974Z,71.36
2023-04-30T01:55:56.579Z,70.73
2023-04-30T01:58:25.957Z,70.97
2023-04-30T02:00:56.176Z,70.14
2023-04-30T02:03:24.136Z,70.54
2023-04-30T02:05:52.106Z,69.93
2023-04-30T02:08:20.077Z,69.94
2023-04-30T02:10:48.054Z,70.40
2023-04-30T02:13:16.233Z,70.64
2023-04-30T02:15:44.270Z,69.97
2023-04-30T02:18:13.573Z,69.20
2023-04-30T02:20:41.658Z,70.09
2023-04-30T02:23:10.141Z,71.02
2023-04-30T02:25:39.108Z,69.40
2023-04-30T02:28:07.597Z,69.69
2023-04-30T02:30:36.220Z,71.12
2023-04-30T02:33:05.265Z,70.20
2023-04-30T02:35:34.649Z,69.84
2023-04-30T02:38:02.551Z,70.47
2023-04-30T02:40:30.433Z,71.28
2023-04-30T02:42:59.018Z,71.04
2023-04-30T02:45:27.023Z,71.59
2023-04-30T02:47:55.039Z,71.20
2023-04-30T02:50:22.988Z,71.03
2023-04-30T02:52:52.241Z,71.24
2023-04-30T02:55:20.187Z,71.03
2023-04-30T02:57:48.208Z,71.18
2023-04-30T03:00:17.449Z,71.09
2023-04-30T03:02:45.582Z,70.98
2023-04-30T03:05:15.858Z,71.42
2023-04-30T03:07:43.803Z,70.80
2023-04-30T03:10:13.178Z,71.03
2023-04-30T03:12:41.078Z,71.87
2023-04-30T03:15:10.075Z,71.46
2023-04-30T03:17:38.052Z,71.90
2023-04-30T03:20:07.251Z,71.94
2023-04-30T03:22:35.181Z,71.54
2023-04-30T03:25:03.520Z,71.00
2023-04-30T03:27:32.761Z,71.92
2023-04-30T03:30:00.600Z,72.81
2023-04-30T03:32:28.493Z,72.51
2023-04-30T03:34:56.509Z,71.73
2023-04-30T03:37:25.475Z,71.53
2023-04-30T03:39:53.662Z,71.29
2023-04-30T03:42:21.645Z,70.00
2023-04-30T03:44:50.863Z,71.88
2023-04-30T03:47:18.847Z,70.97
2023-04-30T03:49:48.967Z,71.95
2023-04-30T03:52:16.931Z,73.08
2023-04-30T03:54:45.053Z,74.75
2023-04-30T03:57:14.025Z,74.23
2023-04-30T03:59:42.615Z,73.90
2023-04-30T04:02:13.160Z,73.62
2023-04-30T04:04:41.493Z,73.62
2023-04-30T04:07:11.464Z,73.71
2023-04-30T04:09:39.479Z,72.96
2023-04-30T04:12:07.706Z,72.05
2023-04-30T04:14:36.532Z,73.14
2023-04-30T04:17:05.728Z,73.10
2023-04-30T04:19:35.514Z,71.66
2023-04-30T04:22:03.416Z,71.11
2023-04-30T04:24:31.804Z,71.17
2023-04-30T04:26:59.770Z,71.10
2023-04-30T04:29:27.686Z,71.53
2023-04-30T04:31:55.753Z,71.50
2023-04-30T04:34:23.901Z,71.28
2023-04-30T04:36:53.370Z,70.40
2023-04-30T04:39:21.276Z,70.20
2023-04-30T04:41:49.385Z,69.18
2023-04-30T04:44:17.307Z,68.94
2023-04-30T04:46:45.803Z,68.91
2023-04-30T04:49:13.785Z,69.07
2023-04-30T04:51:41.761Z,68.82
2023-04-30T04:54:11.489Z,68.01
2023-04-30T04:56:40.816Z,67.52
2023-04-30T04:59:08.770Z,68.06
2023-04-30T05:01:37.143Z,69.73
2023-04-30T05:04:05.351Z,69.99
2023-04-30T05:06:33.523Z,68.15
2023-04-30T05:09:01.546Z,67.73
2023-04-30T05:11:31.153Z,68.11
2023-04-30T05:13:59.215Z,67.73
2023-04-30T05:16:27.534Z,67.77
2023-04-30T05:18:55.464Z,68.26
2023-04-30T05:21:23.354Z,68.66
2023-04-30T05:23:51.222Z,69.09
2023-04-30T05:26:19.225Z,70.52
2023-04-30T05:28:48.430Z,70.94
2023-04-30T05:31:17.209Z,69.44
2023-04-30T05:33:46.101Z,69.66
2023-04-30T05:36:14.663Z,68.69
2023-04-30T05:38:42.766Z,69.45
2023-04-30T05:41:14.145Z,68.43
2023-04-30T05:43:42.114Z,67.82
2023-04-30T05:46:11.323Z,66.93
2023-04-30T05:48:39.967Z,67.09
2023-04-30T05:51:07.880Z,66.59
2023-04-30T05:53:35.917Z,65.75
2023-04-30T05:56:04.396Z,65.68
2023-04-30T05:58:32.771Z,65.58
2023-04-30T06:01:00.762Z,64.18
2023-04-30T06:03:30.191Z,64.98
2023-04-30T06:05:58.460Z,64.77
2023-04-30T06:08:26.450Z,63.67
2023-04-30T06:10:54.470Z,63.42
2023-04-30T06:13:22.423Z,63.88
2023-04-30T06:15:50.613Z,64.37
2023-04-30T06:18:18.599Z,62.32
2023-04-30T06:20:47.980Z,62.83
2023-04-30T06:23:16.031Z,62.10
2023-04-30T06:25:43.996Z,60.78
2023-04-30T06:28:12.270Z,60.94
2023-04-30T06:30:40.151Z,61.34
2023-04-30T06:33:08.138Z,60.02
2023-04-30T06:35:36.236Z,60.15
2023-04-30T06:38:05.533Z,59.66
2023-04-30T06:40:35.943Z,59.02
2023-04-30T06:43:04.429Z,59.05
2023-04-30T06:45:32.374Z,57.22
2023-04-30T06:48:00.621Z,56.03
2023-04-30T06:50:28.731Z,57.34
2023-04-30T06:52:56.615Z,56.66
2023-04-30T06:55:28.062Z,56.93
2023-04-30T06:57:57.793Z,56.77
2023-04-30T07:00:26.518Z,56.00
2023-04-30T07:02:54.499Z,55.79
2023-04-30T07:05:22.463Z,55.64
2023-04-30T07:07:50.607Z,54.64
2023-04-30T07:10:18.673Z,54.76
2023-04-30T07:12:47.926Z,55.32
2023-04-30T07:15:16.041Z,55.28
2023-04-30T07:17:44.123Z,53.86
2023-04-30T07:20:14.718Z,53.31
2023-04-30T07:22:44.495Z,52.06
2023-04-30T07:25:12.701Z,52.79
2023-04-30T07:27:44.106Z,53.10
2023-04-30T07:30:13.941Z,53.38
2023-04-30T07:32:42.762Z,52.73
2023-04-30T07:35:11.122Z,54.26
2023-04-30T07:37:41.101Z,52.28
2023-04-30T07:40:15.173Z,51.22
2023-04-30T07:42:45.832Z,52.70
2023-04-30T07:45:15.253Z,52.49
2023-04-30T07:47:43.324Z,53.14
2023-04-30T07:50:12.417Z,52.29
2023-04-30T07:52:40.382Z,51.60
2023-04-30T07:55:09.158Z,51.35
2023-04-30T07:57:36.992Z,51.44
2023-04-30T08:00:05.576Z,51.16
2023-04-30T08:02:44.078Z,50.46
2023-04-30T08:05:12.715Z,50.90
2023-04-30T08:07:41.671Z,50.53
2023-04-30T08:10:10.193Z,49.44
2023-04-30T08:12:38.297Z,48.54
2023-04-30T08:15:07.925Z,49.67
2023-04-30T08:17:36.850Z,50.33
2023-04-30T08:20:07.918Z,49.04
2023-04-30T08:22:36.408Z,49.42
2023-04-30T08:25:04.360Z,49.45
2023-04-30T08:27:32.456Z,49.46
2023-04-30T08:30:00.596Z,48.51
2023-04-30T08:32:29.181Z,50.30
2023-04-30T08:34:57.325Z,50.14
2023-04-30T08:37:26.686Z,49.44
2023-04-30T08:39:55.009Z,49.85
2023-04-30T08:42:26.809Z,49.03
2023-04-30T08:44:54.720Z,49.86
2023-04-30T08:47:25.316Z,48.81
2023-04-30T08:49:53.540Z,47.26
2023-04-30T08:52:22.950Z,48.16
2023-04-30T08:54:54.201Z,47.84
2023-04-30T08:57:22.205Z,48.75
2023-04-30T08:59:50.113Z,48.65
2023-04-30T09:02:18.026Z,47.27
2023-04-30T09:04:46.819Z,47.25
2023-04-30T09:07:14.879Z,47.80
2023-04-30T09:09:42.810Z,49.02
2023-04-30T09:12:18.797Z,49.03
2023-04-30T09:15:01.583Z,47.99
2023-04-30T09:17:29.616Z,46.08
2023-04-30T09:20:08.161Z,46.28
2023-04-30T09:22:37.424Z,46.54
2023-04-30T09:25:06.236Z,45.72
2023-04-30T09:27:35.843Z,45.27
2023-04-30T09:30:04.772Z,45.00
2023-04-30T09:32:32.893Z,44.47
2023-04-30T09:35:00.804Z,44.97
2023-04-30T09:37:37.391Z,43.75
2023-04-30T09:40:06.161Z,43.76
2023-04-30T09:42:35.599Z,43.11
2023-04-30T09:45:06.593Z,43.51
2023-04-30T09:47:35.055Z,42.69
2023-04-30T09:50:02.989Z,42.68
2023-04-30T09:52:31.857Z,42.82
2023-04-30T09:54:59.942Z,43.38
2023-04-30T09:57:31.751Z,41.86
2023-04-30T10:00:01.924Z,44.09
2023-04-30T10:02:38.594Z,41.84
2023-04-30T10:05:07.911Z,40.81
2023-04-30T10:07:40.438Z,41.77
2023-04-30T10:10:10.451Z,40.83
2023-04-30T10:12:44.326Z,40.73
2023-04-30T10:15:17.708Z,40.55
2023-04-30T10:17:49.838Z,42.45
2023-04-30T10:20:20.174Z,42.18
2023-04-30T10:22:49.394Z,40.89
2023-04-30T10:25:20.550Z,42.37
2023-04-30T10:27:48.539Z,40.31
2023-04-30T10:30:18.526Z,40.14
2023-04-30T10:32:59.943Z,40.03
2023-04-30T10:35:31.642Z,39.63
2023-04-30T10:38:08.883Z,40.33
2023-04-30T10:40:38.452Z,38.80
2023-04-30T10:43:06.435Z,39.80
2023-04-30T10:45:43.664Z,40.67
2023-04-30T10:48:11.949Z,39.89
2023-04-30T10:50:45.586Z,38.88
2023-04-30T10:53:16.887Z,37.97
2023-04-30T10:55:53.089Z,35.95
2023-04-30T10:58:29.092Z,34.86
2023-04-30T11:01:06.042Z,34.38
2023-04-30T11:03:36.406Z,33.55
2023-04-30T11:06:09.919Z,32.22
2023-04-30T11:08:38.770Z,30.01
2023-04-30T11:11:09.726Z,32.31
2023-04-30T11:13:42.224Z,31.69
2023-04-30T11:16:11.916Z,32.46
2023-04-30T11:18:45.068Z,30.80
2023-04-30T11:21:13.157Z,29.94
2023-04-30T11:23:43.192Z,28.96
2023-04-30T11:26:11.847Z,29.55
2023-04-30T11:28:39.784Z,31.58
2023-04-30T11:31:08.024Z,30.79
2023-04-30T11:33:37.492Z,30.77
2023-04-30T11:36:06.037Z,29.01
2023-04-30T11:38:36.663Z,30.29
2023-04-30T11:41:05.893Z,30.79
2023-04-30T11:43:34.885Z,28.05
2023-04-30T11:46:12.117Z,28.29
2023-04-30T11:48:43.252Z,26.64
2023-04-30T11:51:18.968Z,27.62
2023-04-30T11:53:48.690Z,27.37
2023-04-30T11:56:20.550Z,27.51
2023-04-30T11:58:49.434Z,24.84
2023-04-30T12:01:18.518Z,25.55
2023-04-30T12:03:50.284Z,25.10
2023-04-30T12:06:23.685Z,23.74
2023-04-30T12:08:54.302Z,25.45
2023-04-30T12:11:25.321Z,26.02
2023-04-30T12:13:54.662Z,24.33
2023-04-30T12:16:22.756Z,23.41
2023-04-30T12:18:53.138Z,23.13
2023-04-30T12:21:23.895Z,23.97
2023-04-30T12:23:51.909Z,23.37
2023-04-30T12:26:19.774Z,21.46
2023-04-30T12:28:49.756Z,25.00
2023-04-30T12:31:19.180Z,23.28
2023-04-30T12:33:56.493Z,23.17
2023-04-30T12:36:32.304Z,22.36
2023-04-30T12:39:10.861Z,21.80
2023-04-30T12:41:42.405Z,20.88
2023-04-30T12:44:21.313Z,20.49
2023-04-30T12:46:50.441Z,21.27
2023-04-30T12:49:27.628Z,23.83
2023-04-30T12:52:01.392Z,21.87
2023-04-30T12:54:30.294Z,20.79
2023-04-30T12:57:01.250Z,20.65
2023-04-30T12:59:29.487Z,21.07
2023-04-30T13:02:06.301Z,23.23
2023-04-30T13:04:35.973Z,19.95
2023-04-30T13:07:04.781Z,22.04
2023-04-30T13:09:34.392Z,20.67
2023-04-30T13:12:02.421Z,20.47
2023-04-30T13:14:30.393Z,19.88
2023-04-30T13:16:58.370Z,19.53
2023-04-30T13:19:26.953Z,18.82
2023-04-30T13:21:56.484Z,18.95
2023-04-30T13:24:24.653Z,18.95
2023-04-30T13:26:52.564Z,18.54
2023-04-30T13:29:21.164Z,17.78
2023-04-30T13:31:49.965Z,17.86
2023-04-30T13:34:17.896Z,17.92
2023-04-30T13:36:46.869Z,17.99
2023-04-30T13:39:16.635Z,18.71
2023-04-30T13:41:45.019Z,18.97
2023-04-30T13:44:12.922Z,18.47
2023-04-30T13:46:40.903Z,17.69
2023-04-30T13:49:08.880Z,16.03
2023-04-30T13:51:36.748Z,17.62
2023-04-30T13:54:04.692Z,17.18
2023-04-30T13:56:34.020Z,16.75
2023-04-30T13:59:03.041Z,16.48
2023-04-30T14:01:32.873Z,17.46
2023-04-30T14:04:02.034Z,17.46
2023-04-30T14:06:30.567Z,15.38
2023-04-30T14:08:58.731Z,17.48
2023-04-30T14:11:27.770Z,15.91
2023-04-30T14:13:57.123Z,18.36
2023-04-30T14:16:25.070Z,17.60
2023-04-30T14:18:53.020Z,17.12
2023-04-30T14:21:20.969Z,17.62
2023-04-30T14:23:48.840Z,15.90
2023-04-30T14:26:16.810Z,16.25
2023-04-30T14:28:44.769Z,16.14
2023-04-30T14:31:14.093Z,15.02
2023-04-30T14:33:41.982Z,15.02
2023-04-30T14:36:09.899Z,16.39
2023-04-30T14:38:37.758Z,16.08
2023-04-30T14:41:05.803Z,15.79
2023-04-30T14:43:33.756Z,15.45
2023-04-30T14:46:01.728Z,15.15
2023-04-30T14:48:30.973Z,15.19
2023-04-30T14:50:58.874Z,16.98
2023-04-30T14:53:26.725Z,15.87
2023-04-30T14:55:54.675Z,16.59
2023-04-30T14:58:22.644Z,16.56
2023-04-30T15:00:51.264Z,15.98
2023-04-30T15:03:19.317Z,15.11
2023-04-30T15:05:49.944Z,16.02
2023-04-30T15:08:17.825Z,17.35
2023-04-30T15:10:45.972Z,16.43
2023-04-30T15:13:14.277Z,15.80
2023-04-30T15:15:43.107Z,14.76
2023-04-30T15:18:11.246Z,15.47
2023-04-30T15:20:39.132Z,15.56
2023-04-30T15:23:08.388Z,15.78
2023-04-30T15:25:36.382Z,13.83
2023-04-30T15:28:04.538Z,13.40
2023-04-30T15:30:32.562Z,14.18
2023-04-30T15:33:00.387Z,16.01
2023-04-30T15:35:28.628Z,16.14
2023-04-30T15:37:56.626Z,18.65
2023-04-30T15:40:25.978Z,17.72
2023-04-30T15:42:53.875Z,17.02
2023-04-30T15:45:21.739Z,15.60
2023-04-30T15:47:49.687Z,15.63
2023-04-30T15:50:17.909Z,15.35
2023-04-30T15:52:45.993Z,14.73
2023-04-30T15:55:14.355Z,15.43
2023-04-30T15:57:43.693Z,16.67
2023-04-30T16:00:14.578Z,16.66
2023-04-30T16:02:42.905Z,17.94
2023-04-30T16:05:11.760Z,17.79
2023-04-30T16:07:41.362Z,19.75
2023-04-30T16:10:11.967Z,19.11
2023-04-30T16:12:39.866Z,18.42
2023-04-30T16:15:11.151Z,18.60
2023-04-30T16:17:39.192Z,19.26
2023-04-30T16:20:08.564Z,19.62
2023-04-30T16:22:37.340Z,20.16
2023-04-30T16:25:07.657Z,20.28
2023-04-30T16:27:37.323Z,20.63
2023-04-30T16:30:06.707Z,20.40
2023-04-30T16:32:36.013Z,20.86
2023-04-30T16:35:03.945Z,19.75
2023-04-30T16:37:31.905Z,19.83
2023-04-30T16:40:01.457Z,18.35
2023-04-30T16:42:30.197Z,18.65
2023-04-30T16:44:58.184Z,19.57
2023-04-30T16:47:26.222Z,17.53
2023-04-30T16:49:56.295Z,17.24
2023-04-30T16:52:24.461Z,18.17
2023-04-30T16:54:52.634Z,18.96
2023-04-30T16:57:21.105Z,19.19
2023-04-30T16:59:48.969Z,19.29
2023-04-30T17:02:16.966Z,20.96
2023-04-30T17:04:44.873Z,19.39
2023-04-30T17:07:14.134Z,20.17
2023-04-30T17:09:42.182Z,20.56
2023-04-30T17:12:10.109Z,19.65
2023-04-30T17:14:38.606Z,21.04
2023-04-30T17:17:06.515Z,21.07
2023-04-30T17:19:34.495Z,21.41
2023-04-30T17:22:02.755Z,23.16
2023-04-30T17:24:32.074Z,24.00
2023-04-30T17:27:01.046Z,24.03
2023-04-30T17:29:28.982Z,24.10
2023-04-30T17:31:57.204Z,26.25
2023-04-30T17:34:25.282Z,24.87
2023-04-30T17:36:53.183Z,25.71
2023-04-30T17:39:21.084Z,27.18
2023-04-30T17:41:50.480Z,27.82
2023-04-30T17:44:19.416Z,27.51
2023-04-30T17:46:47.426Z,27.78
2023-04-30T17:49:15.483Z,28.80
2023-04-30T17:51:43.361Z,29.48
2023-04-30T17:54:11.246Z,29.23
2023-04-30T17:56:39.201Z,28.32
2023-04-30T17:59:08.628Z,30.55
2023-04-30T18:01:37.395Z,30.78
2023-04-30T18:04:08.519Z,31.60
2023-04-30T18:06:36.793Z,31.46
2023-04-30T18:09:04.923Z,31.67
2023-04-30T18:11:33.755Z,31.79
2023-04-30T18:14:02.095Z,31.52
2023-04-30T18:16:32.414Z,31.97
2023-04-30T18:19:00.574Z,32.90
2023-04-30T18:21:29.670Z,33.71
2023-04-30T18:23:57.517Z,33.06
2023-04-30T18:26:25.825Z,33.00
2023-04-30T18:28:53.924Z,33.00
2023-04-30T18:31:22.054Z,33.98
2023-04-30T18:33:51.331Z,33.78
2023-04-30T18:36:19.384Z,34.15
2023-04-30T18:38:47.293Z,35.41
2023-04-30T18:41:15.423Z,35.78
2023-04-30T18:43:43.563Z,37.01
2023-04-30T18:46:11.519Z,36.67
2023-04-30T18:48:39.457Z,35.83
2023-04-30T18:51:08.674Z,36.25
2023-04-30T18:53:36.729Z,36.50
2023-04-30T18:56:04.791Z,38.59
2023-04-30T18:58:32.813Z,38.60
2023-04-30T19:01:00.743Z,38.04
2023-04-30T19:03:30.393Z,38.53
2023-04-30T19:05:58.684Z,38.72
2023-04-30T19:08:28.073Z,39.30
2023-04-30T19:10:56.794Z,39.71
2023-04-30T19:13:24.932Z,40.03
2023-04-30T19:15:53.809Z,39.75
2023-04-30T19:18:24.546Z,39.29
2023-04-30T19:20:59.404Z,39.75
2023-04-30T19:23:30.696Z,40.04
2023-04-30T19:25:59.553Z,40.03
2023-04-30T19:28:27.569Z,39.57
2023-04-30T19:30:56.399Z,40.35
2023-04-30T19:33:25.819Z,40.98
2023-04-30T19:35:54.649Z,40.40
2023-04-30T19:38:22.823Z,40.90
2023-04-30T19:40:54.326Z,41.47
2023-04-30T19:43:23.363Z,40.97
2023-04-30T19:45:52.926Z,40.85
2023-04-30T19:48:21.677Z,41.76
2023-04-30T19:50:51.451Z,42.84
2023-04-30T19:53:19.361Z,41.28
2023-04-30T19:55:47.262Z,41.24
2023-04-30T19:58:16.623Z,41.02
2023-04-30T20:00:46.044Z,42.06
2023-04-30T20:03:15.289Z,42.73
2023-04-30T20:05:43.705Z,44.35
2023-04-30T20:08:11.790Z,42.56
2023-04-30T20:10:40.981Z,43.04
2023-04-30T20:13:10.536Z,43.78
2023-04-30T20:15:39.959Z,44.17
2023-04-30T20:18:07.973Z,43.55
2023-04-30T20:20:36.162Z,46.07
2023-04-30T20:23:13.989Z,46.55
2023-04-30T20:25:45.387Z,46.47
2023-04-30T20:28:13.968Z,46.31
2023-04-30T20:30:43.861Z,44.12
2023-04-30T20:33:11.923Z,44.24
2023-04-30T20:35:41.483Z,44.29
2023-04-30T20:38:20.110Z,44.55
2023-04-30T20:40:48.329Z,45.36
2023-04-30T20:43:17.454Z,45.63
2023-04-30T20:45:47.647Z,44.99
2023-04-30T20:48:17.187Z,45.34
2023-04-30T20:50:45.549Z,44.91
2023-04-30T20:53:15.134Z,45.15
2023-04-30T20:55:43.718Z,46.00
2023-04-30T20:58:11.917Z,47.28
2023-04-30T21:00:39.844Z,48.58
2023-04-30T21:03:09.557Z,48.59
2023-04-30T21:05:37.665Z,49.42
2023-04-30T21:08:05.897Z,50.01
2023-04-30T21:10:36.791Z,50.57
2023-04-30T21:13:06.211Z,50.34
2023-04-30T21:15:36.512Z,49.50
2023-04-30T21:18:04.682Z,48.22
2023-04-30T21:20:33.948Z,48.91
2023-04-30T21:23:03.526Z,49.43
2023-04-30T21:25:31.547Z,51.07
2023-04-30T21:27:59.461Z,50.56
2023-04-30T21:30:27.519Z,51.58
2023-04-30T21:32:58.696Z,51.89
2023-04-30T21:35:27.952Z,52.03
2023-04-30T21:37:57.278Z,52.95
2023-04-30T21:40:26.122Z,53.33
2023-04-30T21:42:54.775Z,53.57
2023-04-30T21:45:22.905Z,52.62
2023-04-30T21:47:51.081Z,54.17
2023-04-30T21:50:19.123Z,54.14
2023-04-30T21:52:47.040Z,54.48
2023-04-30T21:55:16.461Z,54.37
2023-04-30T21:57:46.521Z,55.01
2023-04-30T22:00:16.864Z,54.91
2023-04-30T22:02:51.541Z,54.84
2023-04-30T22:05:21.094Z,55.38
2023-04-30T22:07:49.503Z,56.40
2023-04-30T22:10:21.374Z,55.77
2023-04-30T22:12:49.625Z,54.93
2023-04-30T22:15:17.530Z,54.58
2023-04-30T22:17:46.145Z,54.71
2023-04-30T22:20:14.518Z,54.64
2023-04-30T22:22:43.041Z,55.61
2023-04-30T22:25:11.383Z,55.63
2023-04-30T22:27:40.829Z,54.26
2023-04-30T22:30:09.485Z,54.55
2023-04-30T22:32:38.100Z,56.14
2023-04-30T22:35:07.821Z,55.68
2023-04-30T22:37:38.611Z,55.20
2023-04-30T22:40:07.713Z,54.28
2023-04-30T22:42:36.005Z,53.65
2023-04-30T22:45:06.116Z,53.85
2023-04-30T22:47:35.222Z,53.21
2023-04-30T22:50:04.774Z,53.02
2023-04-30T22:52:33.211Z,53.85
2023-04-30T22:55:01.504Z,54.74
2023-04-30T22:57:29.542Z,54.83
2023-04-30T22:59:57.810Z,55.06
2023-04-30T23:02:28.719Z,54.15
2023-04-30T23:04:56.983Z,53.94
2023-04-30T23:07:25.065Z,54.96
2023-04-30T23:09:53.315Z,54.24
2023-04-30T23:12:22.511Z,54.94
2023-04-30T23:14:50.956Z,55.14
2023-04-30T23:17:19.020Z,54.86
2023-04-30T23:19:48.315Z,54.10
2023-04-30T23:22:16.672Z,55.90
2023-04-30T23:24:44.619Z,57.74
2023-04-30T23:27:12.628Z,58.44
2023-04-30T23:29:40.551Z,58.30
2023-04-30T23:32:08.421Z,59.07
2023-04-30T23:34:36.474Z,59.16
2023-04-30T23:37:05.743Z,58.78
2023-04-30T23:39:34.089Z,58.83
2023-04-30T23:42:02.502Z,58.70
2023-04-30T23:44:32.524Z,57.70
2023-04-30T23:47:01.406Z,56.91
2023-04-30T23:49:29.321Z,57.67
2023-04-30T23:51:57.277Z,57.74
2023-04-30T23:54:26.557Z,56.52
2023-04-30T23:56:54.512Z,56.60
2023-04-30T23:59:24.505Z,56.99
